To NAV CANADA Home Page Login to a new session Search on AWWS site Feedback and Comments Disclaimer Vers la page française équivalente Tips FAQ What's new on the site To the Forecasts and Observations / NOTAM section To "File a Flight Plan" website Publications and other links Update of the User's profile FIC Telephone Numbers My Weather Data Folder Route Weather Data Regional Weather Data Local Weather Data To the Forecasts and Observations / NOTAM section
Request Generated 06/26/2017 at 22:35:51 UTC . Weather information available at that time is displayed.

METAR/TAF

SWIFT CURRENT/SK    (show WxCam)

METAR CYYN 262200Z AUTO 17021G30KT 9SM CLR 27/07 A2983 RMK SLP096
DENSITY ALT 4800FT=
METAR CYYN 262100Z AUTO 17021G28KT 9SM FEW180 OVC200 26/05 A2987 RMK
SLP110 DENSITY ALT 4600FT=
METAR CYYN 262000Z AUTO 17016G26KT 9SM CLR 26/07 A2990 RMK SLP121
DENSITY ALT 4500FT=

TAF CYYN 261738Z 2618/2706 15020G30KT P6SM BKN220
RMK FCST BASED ON AUTO OBS. NXT FCST BY 270000Z=
Your time UTC time
Weather data provided by Environment Canada and NAV CANADA